createdAt,value
2017-04-19T00:01:01.248Z,25.50
2017-04-19T00:02:03.631Z,25.54
2017-04-19T00:03:06.621Z,25.55
2017-04-19T00:04:08.990Z,25.54
2017-04-19T00:05:11.353Z,25.54
2017-04-19T00:06:13.729Z,25.58
2017-04-19T00:07:16.122Z,25.55
2017-04-19T00:08:19.093Z,25.50
2017-04-19T00:09:21.474Z,25.62
2017-04-19T00:10:23.838Z,25.55
2017-04-19T00:11:26.191Z,25.54
2017-04-19T00:12:28.566Z,25.55
2017-04-19T00:13:31.523Z,25.51
2017-04-19T00:14:33.884Z,25.47
2017-04-19T00:15:36.264Z,25.55
2017-04-19T00:16:38.625Z,25.50
2017-04-19T00:17:40.995Z,25.55
2017-04-19T00:18:43.909Z,25.46
2017-04-19T00:19:46.267Z,25.51
2017-04-19T00:20:48.670Z,25.50
2017-04-19T00:21:51.005Z,25.47
2017-04-19T00:22:53.372Z,25.47
2017-04-19T00:23:56.351Z,25.47
2017-04-19T00:24:58.714Z,25.41
2017-04-19T00:26:01.096Z,25.47
2017-04-19T00:27:03.437Z,25.43
2017-04-19T00:28:05.802Z,25.46
2017-04-19T00:29:08.769Z,25.41
2017-04-19T00:30:11.137Z,25.46
2017-04-19T00:31:13.497Z,25.41
2017-04-19T00:32:15.856Z,25.44
2017-04-19T00:33:18.229Z,25.47
2017-04-19T00:34:21.152Z,25.38
2017-04-19T00:35:23.530Z,25.48
2017-04-19T00:36:25.906Z,25.46
2017-04-19T00:37:28.271Z,25.44
2017-04-19T00:38:30.624Z,25.44
2017-04-19T00:39:33.539Z,25.41
2017-04-19T00:40:35.903Z,25.40
2017-04-19T00:41:38.269Z,25.43
2017-04-19T00:42:40.634Z,25.41
2017-04-19T00:43:43.003Z,25.33
2017-04-19T00:44:45.991Z,25.29
2017-04-19T00:45:48.361Z,25.26
2017-04-19T00:46:50.737Z,25.35
2017-04-19T00:47:53.106Z,25.29
2017-04-19T00:48:55.489Z,25.31
2017-04-19T00:49:58.462Z,25.21
2017-04-19T00:51:00.831Z,25.22
2017-04-19T00:52:03.200Z,25.25
2017-04-19T00:53:05.558Z,25.23
2017-04-19T00:54:07.934Z,25.29
2017-04-19T00:55:10.892Z,25.16
2017-04-19T00:56:13.257Z,25.18
2017-04-19T00:57:15.639Z,25.21
2017-04-19T00:58:18.000Z,25.13
2017-04-19T00:59:20.374Z,25.14
2017-04-19T01:00:23.328Z,25.25
2017-04-19T01:01:25.694Z,25.18
2017-04-19T01:02:28.081Z,25.21
2017-04-19T01:03:30.449Z,25.08
2017-04-19T01:04:32.820Z,25.16
2017-04-19T01:05:35.780Z,25.10
2017-04-19T01:06:38.145Z,25.16
2017-04-19T01:07:40.510Z,25.11
2017-04-19T01:08:42.866Z,25.11
2017-04-19T01:09:45.231Z,25.04
2017-04-19T01:10:48.185Z,25.04
2017-04-19T01:11:50.550Z,25.08
2017-04-19T01:12:52.925Z,25.03
2017-04-19T01:13:55.278Z,25.01
2017-04-19T01:14:57.647Z,25.08
2017-04-19T01:16:00.568Z,24.99
2017-04-19T01:17:02.950Z,24.96
2017-04-19T01:18:05.310Z,24.96
2017-04-19T01:19:07.679Z,24.99
2017-04-19T01:20:10.041Z,25.03
2017-04-19T01:21:12.963Z,25.01
2017-04-19T01:22:15.329Z,24.93
2017-04-19T01:23:17.690Z,24.88
2017-04-19T01:24:20.051Z,24.86
2017-04-19T01:25:22.410Z,24.89
2017-04-19T01:26:25.328Z,24.93
2017-04-19T01:27:27.731Z,24.93
2017-04-19T01:28:30.099Z,24.89
2017-04-19T01:29:32.477Z,24.86
2017-04-19T01:30:34.841Z,24.95
2017-04-19T01:31:37.802Z,24.85
2017-04-19T01:32:40.166Z,24.84
2017-04-19T01:33:42.524Z,24.89
2017-04-19T01:34:44.889Z,24.81
2017-04-19T01:35:47.263Z,24.81
2017-04-19T01:36:50.221Z,24.91
2017-04-19T01:37:52.582Z,24.91
2017-04-19T01:38:54.946Z,24.88
2017-04-19T01:39:57.307Z,24.88
2017-04-19T01:40:59.675Z,24.86
2017-04-19T01:42:02.593Z,24.88
2017-04-19T01:43:04.945Z,24.89
2017-04-19T01:44:07.307Z,24.88
2017-04-19T01:45:09.680Z,24.85
2017-04-19T01:46:12.040Z,24.92
2017-04-19T01:47:15.017Z,24.86
2017-04-19T01:48:17.376Z,24.84
2017-04-19T01:49:19.736Z,24.88
2017-04-19T01:50:22.104Z,24.84
2017-04-19T01:51:24.475Z,24.89
2017-04-19T01:52:27.430Z,24.80
2017-04-19T01:53:29.791Z,24.89
2017-04-19T01:54:32.152Z,24.77
2017-04-19T01:55:34.513Z,24.80
2017-04-19T01:56:36.882Z,24.78
2017-04-19T01:57:39.792Z,24.74
2017-04-19T01:58:42.163Z,24.73
2017-04-19T01:59:44.518Z,24.81
2017-04-19T02:00:46.878Z,24.77
2017-04-19T02:01:49.242Z,24.76
2017-04-19T02:02:52.205Z,24.80
2017-04-19T02:03:54.571Z,24.80
2017-04-19T02:04:56.934Z,24.76
2017-04-19T02:05:59.301Z,24.73
2017-04-19T02:07:01.663Z,24.77
2017-04-19T02:08:04.651Z,24.74
2017-04-19T02:09:07.032Z,24.73
2017-04-19T02:10:09.387Z,24.74
2017-04-19T02:11:11.752Z,24.78
2017-04-19T02:12:14.115Z,24.77
2017-04-19T02:13:17.039Z,24.77
2017-04-19T02:14:19.405Z,24.63
2017-04-19T02:15:21.768Z,24.68
2017-04-19T02:16:24.131Z,24.70
2017-04-19T02:17:26.494Z,24.70
2017-04-19T02:18:29.458Z,24.70
2017-04-19T02:19:31.815Z,24.65
2017-04-19T02:20:34.188Z,24.69
2017-04-19T02:21:36.545Z,24.69
2017-04-19T02:22:38.918Z,24.68
2017-04-19T02:23:41.880Z,24.73
2017-04-19T02:24:44.247Z,24.65
2017-04-19T02:25:46.813Z,24.57
2017-04-19T02:26:49.185Z,24.63
2017-04-19T02:27:51.556Z,24.50
2017-04-19T02:28:54.523Z,24.51
2017-04-19T02:29:56.887Z,24.54
2017-04-19T02:30:59.258Z,24.58
2017-04-19T02:32:01.624Z,24.51
2017-04-19T02:33:03.985Z,24.58
2017-04-19T02:34:06.949Z,24.42
2017-04-19T02:35:09.329Z,24.50
2017-04-19T02:36:11.697Z,24.39
2017-04-19T02:37:14.058Z,24.45
2017-04-19T02:38:16.424Z,24.48
2017-04-19T02:39:19.414Z,24.48
2017-04-19T02:40:21.800Z,24.38
2017-04-19T02:41:24.163Z,24.40
2017-04-19T02:42:26.560Z,24.36
2017-04-19T02:43:28.933Z,24.43
2017-04-19T02:44:31.863Z,24.45
2017-04-19T02:45:34.237Z,24.43
2017-04-19T02:46:36.612Z,24.35
2017-04-19T02:47:38.984Z,24.30
2017-04-19T02:48:41.361Z,24.30
2017-04-19T02:49:44.388Z,24.38
2017-04-19T02:50:46.763Z,24.36
2017-04-19T02:51:49.136Z,24.33
2017-04-19T02:52:51.513Z,24.29
2017-04-19T02:53:53.881Z,24.47
2017-04-19T02:54:56.856Z,24.30
2017-04-19T02:55:59.228Z,24.39
2017-04-19T02:57:01.589Z,24.32
2017-04-19T02:58:03.958Z,24.39
2017-04-19T02:59:06.330Z,24.42
2017-04-19T03:00:09.289Z,24.39
2017-04-19T03:01:11.668Z,24.45
2017-04-19T03:02:14.237Z,24.42
2017-04-19T03:03:16.619Z,24.45
2017-04-19T03:04:18.980Z,24.47
2017-04-19T03:05:21.948Z,24.38
2017-04-19T03:06:24.306Z,24.39
2017-04-19T03:07:26.688Z,24.45
2017-04-19T03:08:29.075Z,24.42
2017-04-19T03:09:31.463Z,24.45
2017-04-19T03:10:34.433Z,24.39
2017-04-19T03:11:36.802Z,24.38
2017-04-19T03:12:39.185Z,24.35
2017-04-19T03:13:41.585Z,24.45
2017-04-19T03:14:43.949Z,24.39
2017-04-19T03:15:46.929Z,24.42
2017-04-19T03:16:49.304Z,24.39
2017-04-19T03:17:51.664Z,24.40
2017-04-19T03:18:54.036Z,24.45
2017-04-19T03:19:56.409Z,24.42
2017-04-19T03:20:59.385Z,24.40
2017-04-19T03:22:01.766Z,24.45
2017-04-19T03:23:04.155Z,24.48
2017-04-19T03:24:06.533Z,24.50
2017-04-19T03:25:08.927Z,24.47
2017-04-19T03:26:11.926Z,24.45
2017-04-19T03:27:14.287Z,24.40
2017-04-19T03:28:16.656Z,24.51
2017-04-19T03:29:19.022Z,24.40
2017-04-19T03:30:21.384Z,24.45
2017-04-19T03:31:24.354Z,24.45
2017-04-19T03:32:26.743Z,24.42
2017-04-19T03:33:29.118Z,24.45
2017-04-19T03:34:31.489Z,24.42
2017-04-19T03:35:33.882Z,24.48
2017-04-19T03:36:36.851Z,24.50
2017-04-19T03:37:39.216Z,24.43
2017-04-19T03:38:41.578Z,24.45
2017-04-19T03:39:43.956Z,24.45
2017-04-19T03:40:46.345Z,24.42
2017-04-19T03:41:49.310Z,24.47
2017-04-19T03:42:51.689Z,24.53
2017-04-19T03:43:54.074Z,24.47
2017-04-19T03:44:56.464Z,24.55
2017-04-19T03:45:58.848Z,24.48
2017-04-19T03:49:30.630Z,24.53
2017-04-19T03:50:33.016Z,24.53
2017-04-19T03:51:35.378Z,24.58
2017-04-19T03:52:38.307Z,24.54
2017-04-19T03:53:40.703Z,24.51
2017-04-19T03:54:43.091Z,24.66
2017-04-19T03:55:45.470Z,24.63
2017-04-19T03:56:47.858Z,24.70
2017-04-19T03:57:50.845Z,24.68
2017-04-19T03:58:53.217Z,24.61
2017-04-19T03:59:55.606Z,24.66
2017-04-19T04:00:57.995Z,24.66
2017-04-19T04:02:00.372Z,24.63
2017-04-19T04:03:03.364Z,24.63
2017-04-19T04:04:05.759Z,24.65
2017-04-19T04:05:08.164Z,24.68
2017-04-19T04:06:10.544Z,24.66
2017-04-19T04:07:12.938Z,24.58
2017-04-19T04:08:15.938Z,24.63
2017-04-19T04:09:18.324Z,24.54
2017-04-19T04:10:20.694Z,24.53
2017-04-19T04:11:23.066Z,24.54
2017-04-19T04:12:25.433Z,24.50
2017-04-19T04:13:28.415Z,24.53
2017-04-19T04:14:30.807Z,24.48
2017-04-19T04:15:33.207Z,24.55
2017-04-19T04:16:35.550Z,24.50
2017-04-19T04:17:37.920Z,24.53
2017-04-19T04:18:40.943Z,24.61
2017-04-19T04:19:43.297Z,24.53
2017-04-19T04:20:45.694Z,24.48
2017-04-19T04:21:48.086Z,24.53
2017-04-19T04:22:50.466Z,24.58
2017-04-19T04:23:53.450Z,24.54
2017-04-19T04:24:55.841Z,24.40
2017-04-19T04:25:58.220Z,24.50
2017-04-19T04:27:00.573Z,24.38
2017-04-19T04:28:02.963Z,24.40
2017-04-19T04:29:05.930Z,24.42
2017-04-19T04:30:08.321Z,24.43
2017-04-19T04:31:10.716Z,24.35
2017-04-19T04:32:13.117Z,24.39
2017-04-19T04:33:15.486Z,24.45
2017-04-19T04:34:18.453Z,24.45
2017-04-19T04:35:20.843Z,24.43
2017-04-19T04:36:23.212Z,24.39
2017-04-19T04:37:25.570Z,24.36
2017-04-19T04:38:27.953Z,24.28
2017-04-19T04:39:30.869Z,24.24
2017-04-19T04:40:33.258Z,24.30
2017-04-19T04:41:35.628Z,24.30
2017-04-19T04:42:38.003Z,24.33
2017-04-19T04:43:40.380Z,24.24
2017-04-19T04:44:43.379Z,24.23
2017-04-19T04:45:45.757Z,24.26
2017-04-19T04:46:48.130Z,24.24
2017-04-19T04:47:50.520Z,24.18
2017-04-19T04:48:52.882Z,24.23
2017-04-19T04:49:55.869Z,24.21
2017-04-19T04:50:58.230Z,24.18
2017-04-19T04:52:00.600Z,24.17
2017-04-19T04:53:02.977Z,24.21
2017-04-19T04:54:05.352Z,24.14
2017-04-19T04:55:08.275Z,24.21
2017-04-19T04:56:10.649Z,24.16
2017-04-19T04:57:13.006Z,24.20
2017-04-19T04:58:15.374Z,24.18
2017-04-19T04:59:17.746Z,24.13
2017-04-19T05:00:20.706Z,24.13
2017-04-19T05:01:23.102Z,24.18
2017-04-19T05:02:25.464Z,24.14
2017-04-19T05:03:27.823Z,24.16
2017-04-19T05:04:30.186Z,24.14
2017-04-19T05:05:33.177Z,24.16
2017-04-19T05:06:35.563Z,24.11
2017-04-19T05:07:37.948Z,24.11
2017-04-19T05:08:40.319Z,24.13
2017-04-19T05:09:42.673Z,24.11
2017-04-19T05:10:45.677Z,24.11
2017-04-19T05:11:48.056Z,24.08
2017-04-19T05:12:50.411Z,24.03
2017-04-19T05:13:52.778Z,24.05
2017-04-19T05:14:55.138Z,24.05
2017-04-19T05:15:58.102Z,24.06
2017-04-19T05:17:00.473Z,24.06
2017-04-19T05:18:02.825Z,24.06
2017-04-19T05:19:05.200Z,23.95
2017-04-19T05:20:07.579Z,24.08
2017-04-19T05:21:10.490Z,24.06
2017-04-19T05:22:12.850Z,24.05
2017-04-19T05:23:15.221Z,23.98
2017-04-19T05:24:17.584Z,23.98
2017-04-19T05:25:19.953Z,24.02
2017-04-19T05:26:22.913Z,23.96
2017-04-19T05:27:25.272Z,24.02
2017-04-19T05:28:27.631Z,24.05
2017-04-19T05:29:29.995Z,23.99
2017-04-19T05:30:32.354Z,24.06
2017-04-19T05:31:35.275Z,23.99
2017-04-19T05:32:37.632Z,23.98
2017-04-19T05:33:39.989Z,23.98
2017-04-19T05:34:42.348Z,23.98
2017-04-19T05:35:44.731Z,23.96
2017-04-19T05:36:47.638Z,23.92
2017-04-19T05:37:49.994Z,23.93
2017-04-19T05:38:52.365Z,23.93
2017-04-19T05:39:54.718Z,23.92
2017-04-19T05:40:57.081Z,23.91
2017-04-19T05:42:00.043Z,23.91
2017-04-19T05:43:02.398Z,23.91
2017-04-19T05:44:04.761Z,23.87
2017-04-19T05:45:07.122Z,23.91
2017-04-19T05:46:09.484Z,23.86
2017-04-19T05:47:12.437Z,23.87
2017-04-19T05:48:14.801Z,23.87
2017-04-19T05:49:17.157Z,23.88
2017-04-19T05:50:19.520Z,23.91
2017-04-19T05:51:21.875Z,23.83
2017-04-19T05:52:24.851Z,23.87
2017-04-19T05:53:27.211Z,23.83
2017-04-19T05:54:29.569Z,23.87
2017-04-19T05:55:31.923Z,23.80
2017-04-19T05:56:34.285Z,23.81
2017-04-19T05:57:37.208Z,23.81
2017-04-19T05:58:39.559Z,23.88
2017-04-19T05:59:41.917Z,23.88
2017-04-19T06:00:44.274Z,23.83
2017-04-19T06:01:46.646Z,23.88
2017-04-19T06:02:49.606Z,23.88
2017-04-19T06:03:51.961Z,23.87
2017-04-19T06:04:54.326Z,23.88
2017-04-19T06:05:56.678Z,23.81
2017-04-19T06:06:59.046Z,23.83
2017-04-19T06:08:02.004Z,23.78
2017-04-19T06:09:04.363Z,23.83
2017-04-19T06:10:06.722Z,23.78
2017-04-19T06:11:09.082Z,23.77
2017-04-19T06:12:11.444Z,23.66
2017-04-19T06:13:14.402Z,23.74
2017-04-19T06:14:16.764Z,23.71
2017-04-19T06:15:19.319Z,23.78
2017-04-19T06:16:21.687Z,23.68
2017-04-19T06:17:24.040Z,23.76
2017-04-19T06:18:27.003Z,23.69
2017-04-19T06:19:29.360Z,23.68
2017-04-19T06:20:31.719Z,23.71
2017-04-19T06:21:34.083Z,23.68
2017-04-19T06:22:36.442Z,23.71
2017-04-19T06:23:39.401Z,23.84
2017-04-19T06:24:41.766Z,23.78
2017-04-19T06:25:44.120Z,23.80
2017-04-19T06:26:46.482Z,23.81
2017-04-19T06:27:48.841Z,23.68
2017-04-19T06:28:51.799Z,23.78
2017-04-19T06:29:54.160Z,23.71
2017-04-19T06:30:56.521Z,23.76
2017-04-19T06:31:58.878Z,23.74
2017-04-19T06:33:01.242Z,23.68
2017-04-19T06:34:04.199Z,23.68
2017-04-19T06:35:06.574Z,23.68
2017-04-19T06:36:08.928Z,23.74
2017-04-19T06:37:11.289Z,23.69
2017-04-19T06:38:13.651Z,23.69
2017-04-19T06:39:16.613Z,23.68
2017-04-19T06:40:18.980Z,23.71
2017-04-19T06:41:21.337Z,23.73
2017-04-19T06:42:23.704Z,23.71
2017-04-19T06:43:26.059Z,23.78
2017-04-19T06:44:29.029Z,23.76
2017-04-19T06:45:31.382Z,23.80
2017-04-19T06:46:33.749Z,23.83
2017-04-19T06:47:36.107Z,23.80
2017-04-19T06:48:38.493Z,23.80
2017-04-19T06:49:41.425Z,23.77
2017-04-19T06:50:43.783Z,23.77
2017-04-19T06:51:46.140Z,23.81
2017-04-19T06:52:48.495Z,23.77
2017-04-19T06:53:50.870Z,23.80
2017-04-19T06:54:53.829Z,23.78
2017-04-19T06:55:56.187Z,23.78
2017-04-19T06:56:58.542Z,23.77
2017-04-19T06:58:00.905Z,23.81
2017-04-19T06:59:03.266Z,23.78
2017-04-19T07:00:06.230Z,23.81
2017-04-19T07:01:08.588Z,23.80
2017-04-19T07:02:10.953Z,23.83
2017-04-19T07:03:13.313Z,23.78
2017-04-19T07:04:15.674Z,23.88
2017-04-19T07:05:18.643Z,23.88
2017-04-19T07:06:20.997Z,23.88
2017-04-19T07:07:23.359Z,23.92
2017-04-19T07:08:25.725Z,23.93
2017-04-19T07:09:28.081Z,23.88
2017-04-19T07:10:31.053Z,23.92
2017-04-19T07:11:33.411Z,23.99
2017-04-19T07:12:35.772Z,23.95
2017-04-19T07:13:38.126Z,23.93
2017-04-19T07:14:40.492Z,23.95
2017-04-19T07:15:43.393Z,24.01
2017-04-19T07:16:45.757Z,24.02
2017-04-19T07:17:48.112Z,24.05
2017-04-19T07:18:50.481Z,24.13
2017-04-19T07:19:52.841Z,24.17
2017-04-19T07:20:55.800Z,24.18
2017-04-19T07:21:58.161Z,24.11
2017-04-19T07:23:00.524Z,24.16
2017-04-19T07:24:02.897Z,24.14
2017-04-19T07:25:05.274Z,24.11
2017-04-19T07:26:08.234Z,24.17
2017-04-19T07:27:10.593Z,24.14
2017-04-19T07:28:12.946Z,24.26
2017-04-19T07:29:15.307Z,24.26
2017-04-19T07:30:17.688Z,24.30
2017-04-19T07:31:20.638Z,24.30
2017-04-19T07:32:22.996Z,24.17
2017-04-19T07:33:25.360Z,24.23
2017-04-19T07:34:27.721Z,24.24
2017-04-19T07:35:30.081Z,24.20
2017-04-19T07:36:33.039Z,24.24
2017-04-19T07:37:35.407Z,24.23
2017-04-19T07:38:37.765Z,24.23
2017-04-19T07:39:40.118Z,24.24
2017-04-19T07:40:42.479Z,24.26
2017-04-19T07:41:45.396Z,24.21
2017-04-19T07:42:47.758Z,24.24
2017-04-19T07:43:50.114Z,24.24
2017-04-19T07:44:52.469Z,24.26
2017-04-19T07:45:54.830Z,24.18
2017-04-19T07:46:57.751Z,24.29
2017-04-19T07:48:00.106Z,24.26
2017-04-19T07:49:02.464Z,24.29
2017-04-19T07:50:04.824Z,24.30
2017-04-19T07:51:07.181Z,24.35
2017-04-19T07:52:10.150Z,24.33
2017-04-19T07:53:12.504Z,24.30
2017-04-19T07:54:14.869Z,24.35
2017-04-19T07:55:17.231Z,24.32
2017-04-19T07:56:19.599Z,24.33
2017-04-19T07:57:22.547Z,24.35
2017-04-19T07:58:24.907Z,24.33
2017-04-19T07:59:27.266Z,24.33
2017-04-19T08:00:29.631Z,24.36
2017-04-19T08:01:31.994Z,24.35
2017-04-19T08:02:34.952Z,24.32
2017-04-19T08:03:37.312Z,24.35
2017-04-19T08:04:39.669Z,24.32
2017-04-19T08:05:42.045Z,24.35
2017-04-19T08:06:44.400Z,24.32
2017-04-19T08:07:47.364Z,24.33
2017-04-19T08:08:49.725Z,24.33
2017-04-19T08:09:52.084Z,24.33
2017-04-19T08:10:54.459Z,24.28
2017-04-19T08:11:56.813Z,24.40
2017-04-19T08:12:59.772Z,24.45
2017-04-19T08:14:02.136Z,24.33
2017-04-19T08:15:04.491Z,24.43
2017-04-19T08:16:06.845Z,24.35
2017-04-19T08:17:09.215Z,24.36
2017-04-19T08:18:12.166Z,24.35
2017-04-19T08:19:14.529Z,24.32
2017-04-19T08:20:16.893Z,24.36
2017-04-19T08:21:19.240Z,24.30
2017-04-19T08:22:21.607Z,24.43
2017-04-19T08:23:24.566Z,24.43
2017-04-19T08:24:26.930Z,24.43
2017-04-19T08:25:29.288Z,24.42
2017-04-19T08:26:31.646Z,24.39
2017-04-19T08:27:34.010Z,24.32
2017-04-19T08:28:36.970Z,24.45
2017-04-19T08:29:39.346Z,24.38
2017-04-19T08:30:41.699Z,24.35
2017-04-19T08:31:44.053Z,24.35
2017-04-19T08:32:46.415Z,24.32
2017-04-19T08:33:49.374Z,24.42
2017-04-19T08:34:51.740Z,24.39
2017-04-19T08:35:54.101Z,24.36
2017-04-19T08:36:56.660Z,24.42
2017-04-19T08:37:59.032Z,24.35
2017-04-19T08:39:01.987Z,24.33
2017-04-19T08:40:04.355Z,24.30
2017-04-19T08:41:06.713Z,24.32
2017-04-19T08:42:09.077Z,24.35
2017-04-19T08:43:11.436Z,24.33
2017-04-19T08:44:14.398Z,24.32
2017-04-19T08:45:16.767Z,24.30
2017-04-19T08:46:19.122Z,24.32
2017-04-19T08:47:21.482Z,24.29
2017-04-19T08:48:23.856Z,24.30
2017-04-19T08:49:28.714Z,24.35
2017-04-19T08:50:31.271Z,24.32
2017-04-19T08:51:33.636Z,24.33
2017-04-19T08:52:35.996Z,24.35
2017-04-19T08:53:38.355Z,24.35
2017-04-19T08:54:41.327Z,24.32
2017-04-19T08:55:43.683Z,24.30
2017-04-19T08:56:46.042Z,24.21
2017-04-19T08:57:48.403Z,24.30
2017-04-19T08:58:50.762Z,24.24
2017-04-19T08:59:53.720Z,24.24
2017-04-19T09:00:56.080Z,24.21
2017-04-19T09:01:58.445Z,24.30
2017-04-19T09:03:00.815Z,24.33
2017-04-19T09:04:03.172Z,24.30
2017-04-19T09:05:06.134Z,24.28
2017-04-19T09:06:08.496Z,24.29
2017-04-19T09:07:10.850Z,24.26
2017-04-19T09:08:13.217Z,24.32
2017-04-19T09:09:15.570Z,24.32
2017-04-19T09:10:20.440Z,24.30
2017-04-19T09:11:22.800Z,24.29
2017-04-19T09:12:25.163Z,24.30
2017-04-19T09:13:27.517Z,24.28
2017-04-19T09:14:29.878Z,24.30
2017-04-19T09:15:32.789Z,24.28
2017-04-19T09:16:35.370Z,24.30
2017-04-19T09:17:37.718Z,24.32
2017-04-19T09:18:40.091Z,24.26
2017-04-19T09:19:42.441Z,24.21
2017-04-19T09:20:45.359Z,24.26
2017-04-19T09:21:47.716Z,24.30
2017-04-19T09:22:50.076Z,24.30
2017-04-19T09:23:52.438Z,24.30
2017-04-19T09:24:54.800Z,24.29
2017-04-19T09:25:57.715Z,24.24
2017-04-19T09:27:00.075Z,24.21
2017-04-19T09:28:02.437Z,24.26
2017-04-19T09:29:04.799Z,24.21
2017-04-19T09:30:07.166Z,24.23
2017-04-19T09:31:10.128Z,24.30
2017-04-19T09:32:12.500Z,24.29
2017-04-19T09:33:15.050Z,24.28
2017-04-19T09:34:17.418Z,24.28
2017-04-19T09:35:19.774Z,24.30
2017-04-19T09:36:22.739Z,24.33
2017-04-19T09:37:25.091Z,24.35
2017-04-19T09:38:27.454Z,24.30
2017-04-19T09:39:29.815Z,24.43
2017-04-19T09:40:32.180Z,24.35
2017-04-19T09:41:35.091Z,24.33
2017-04-19T09:42:37.457Z,24.33
2017-04-19T09:43:39.823Z,24.28
2017-04-19T09:44:42.179Z,24.30
2017-04-19T09:45:44.538Z,24.29
2017-04-19T09:46:49.408Z,24.23
2017-04-19T09:47:51.780Z,24.21
2017-04-19T09:48:54.131Z,24.26
2017-04-19T09:49:56.490Z,24.23
2017-04-19T09:50:59.049Z,24.28
2017-04-19T09:52:01.976Z,24.21
2017-04-19T09:53:04.335Z,24.24
2017-04-19T09:54:06.690Z,24.24
2017-04-19T09:55:09.050Z,24.23
2017-04-19T09:56:11.428Z,24.20
2017-04-19T09:57:14.331Z,24.24
2017-04-19T09:58:16.689Z,24.23
2017-04-19T09:59:19.050Z,24.28
2017-04-19T10:00:21.407Z,24.20
2017-04-19T10:01:23.770Z,24.18
2017-04-19T10:02:26.735Z,24.24
2017-04-19T10:03:29.098Z,24.24
2017-04-19T10:04:31.462Z,24.26
2017-04-19T10:05:33.817Z,24.21
2017-04-19T10:06:36.181Z,24.13
2017-04-19T10:07:39.154Z,24.14
2017-04-19T10:08:41.507Z,24.16
2017-04-19T10:09:43.883Z,24.17
2017-04-19T10:10:46.236Z,24.18
2017-04-19T10:11:49.796Z,24.23
2017-04-19T10:12:52.761Z,24.16
2017-04-19T10:13:55.117Z,24.18
2017-04-19T10:14:57.479Z,24.30
2017-04-19T10:15:59.849Z,24.23
2017-04-19T10:17:02.415Z,24.26
2017-04-19T10:18:05.372Z,24.30
2017-04-19T10:19:07.736Z,24.26
2017-04-19T10:20:10.095Z,24.13
2017-04-19T10:21:12.450Z,24.20
2017-04-19T10:22:14.823Z,24.24
2017-04-19T10:23:17.782Z,24.16
2017-04-19T10:24:20.141Z,24.24
2017-04-19T10:25:22.493Z,24.23
2017-04-19T10:26:24.864Z,24.24
2017-04-19T10:27:27.222Z,24.21
2017-04-19T10:28:30.186Z,24.24
2017-04-19T10:29:32.549Z,24.23
2017-04-19T10:30:34.909Z,24.26
2017-04-19T10:31:37.276Z,24.24
2017-04-19T10:32:39.635Z,24.24
2017-04-19T10:33:45.919Z,24.17
2017-04-19T10:34:48.273Z,24.24
2017-04-19T10:35:50.830Z,24.33
2017-04-19T10:36:53.398Z,24.17
2017-04-19T10:37:55.762Z,24.21
2017-04-19T10:38:58.725Z,24.24
2017-04-19T10:40:01.084Z,24.24
2017-04-19T10:41:03.450Z,24.30
2017-04-19T10:42:05.797Z,24.23
2017-04-19T10:43:08.168Z,24.23
2017-04-19T10:44:13.076Z,24.28
2017-04-19T10:45:15.441Z,24.23
2017-04-19T10:46:17.796Z,24.18
2017-04-19T10:47:20.163Z,24.18
2017-04-19T10:48:22.522Z,24.23
2017-04-19T10:49:25.587Z,24.21
2017-04-19T10:50:27.947Z,24.23
2017-04-19T10:51:30.309Z,24.11
2017-04-19T10:52:32.668Z,24.24
2017-04-19T10:53:35.025Z,24.18
2017-04-19T10:54:37.988Z,24.10
2017-04-19T10:55:40.351Z,24.18
2017-04-19T10:56:42.906Z,24.18
2017-04-19T10:57:45.276Z,24.20
2017-04-19T10:58:47.631Z,24.10
2017-04-19T10:59:50.589Z,24.20
2017-04-19T11:00:53.153Z,24.13
2017-04-19T11:01:56.927Z,24.18
2017-04-19T11:02:59.286Z,24.18
2017-04-19T11:04:01.845Z,24.21
2017-04-19T11:05:04.762Z,24.17
2017-04-19T11:06:07.124Z,24.17
2017-04-19T11:07:09.476Z,24.23
2017-04-19T11:08:11.839Z,24.18
2017-04-19T11:09:14.203Z,24.26
2017-04-19T11:10:17.273Z,24.17
2017-04-19T11:11:19.636Z,24.21
2017-04-19T11:12:21.996Z,24.20
2017-04-19T11:13:24.357Z,24.17
2017-04-19T11:14:26.727Z,24.21
2017-04-19T11:15:29.838Z,24.18
2017-04-19T11:16:32.200Z,24.20
2017-04-19T11:17:34.562Z,24.26
2017-04-19T11:18:36.925Z,24.24
2017-04-19T11:19:39.276Z,24.24
2017-04-19T11:20:42.399Z,24.21
2017-04-19T11:21:44.962Z,24.17
2017-04-19T11:22:47.336Z,24.13
2017-04-19T11:23:49.693Z,24.10
2017-04-19T11:24:52.054Z,24.14
2017-04-19T11:25:58.214Z,24.13
2017-04-19T11:27:00.577Z,24.11
2017-04-19T11:28:02.937Z,24.13
2017-04-19T11:29:05.295Z,24.11
2017-04-19T11:30:07.655Z,24.11
2017-04-19T11:31:12.529Z,24.16
2017-04-19T11:32:14.880Z,24.14
2017-04-19T11:33:17.243Z,24.13
2017-04-19T11:34:19.604Z,24.16
2017-04-19T11:35:21.973Z,24.11
2017-04-19T11:36:24.932Z,24.03
2017-04-19T11:37:27.292Z,24.06
2017-04-19T11:38:29.649Z,24.06
2017-04-19T11:39:32.030Z,24.03
2017-04-19T11:40:34.387Z,23.99
2017-04-19T11:41:37.295Z,23.99
2017-04-19T11:42:39.651Z,24.03
2017-04-19T11:43:42.020Z,24.05
2017-04-19T11:44:44.375Z,23.99
2017-04-19T11:45:46.736Z,24.06
2017-04-19T11:46:49.704Z,24.10
2017-04-19T11:47:52.071Z,24.10
2017-04-19T11:48:54.435Z,24.05
2017-04-19T11:49:56.791Z,23.95
2017-04-19T11:50:59.153Z,24.02
2017-04-19T11:52:04.081Z,24.03
2017-04-19T11:53:06.440Z,24.06
2017-04-19T11:54:08.811Z,23.96
2017-04-19T11:55:11.176Z,24.11
2017-04-19T11:56:13.536Z,24.03
2017-04-19T11:57:16.503Z,24.10
2017-04-19T11:58:18.866Z,24.05
2017-04-19T11:59:21.423Z,23.96
2017-04-19T12:00:23.798Z,24.03
2017-04-19T12:01:26.156Z,24.05
2017-04-19T12:02:29.128Z,24.03
2017-04-19T12:03:31.489Z,24.01
2017-04-19T12:04:33.848Z,23.98
2017-04-19T12:05:36.216Z,23.99
2017-04-19T12:06:38.581Z,23.95
2017-04-19T12:07:41.500Z,23.98
2017-04-19T12:08:43.860Z,24.01
2017-04-19T12:09:46.231Z,24.03
2017-04-19T12:10:48.598Z,24.02
2017-04-19T12:11:50.958Z,24.03
2017-04-19T12:12:53.874Z,24.10
2017-04-19T12:13:56.237Z,24.02
2017-04-19T12:14:58.600Z,24.08
2017-04-19T12:16:00.972Z,24.10
2017-04-19T12:17:03.329Z,24.10
2017-04-19T12:18:08.249Z,24.10
2017-04-19T12:19:10.621Z,24.11
2017-04-19T12:20:12.981Z,24.13
2017-04-19T12:21:15.342Z,24.11
2017-04-19T12:22:17.906Z,24.13
2017-04-19T12:23:20.972Z,24.11
2017-04-19T12:24:23.338Z,24.11
2017-04-19T12:25:25.703Z,24.14
2017-04-19T12:26:28.078Z,24.16
2017-04-19T12:27:30.433Z,24.17
2017-04-19T12:28:35.356Z,24.21
2017-04-19T12:29:37.723Z,24.24
2017-04-19T12:30:40.090Z,24.18
2017-04-19T12:31:42.455Z,24.23
2017-04-19T12:32:44.821Z,24.20
2017-04-19T12:33:47.785Z,24.32
2017-04-19T12:34:50.152Z,24.24
2017-04-19T12:35:52.511Z,24.30
2017-04-19T12:36:54.884Z,24.30
2017-04-19T12:37:57.263Z,24.33
2017-04-19T12:39:00.183Z,24.29
2017-04-19T12:40:02.543Z,24.35
2017-04-19T12:41:04.911Z,24.30
2017-04-19T12:42:07.283Z,24.33
2017-04-19T12:43:09.650Z,24.30
2017-04-19T12:44:12.612Z,24.40
2017-04-19T12:45:14.976Z,24.30
2017-04-19T12:46:17.344Z,24.42
2017-04-19T12:47:19.710Z,24.45
2017-04-19T12:48:22.074Z,24.51
2017-04-19T12:49:25.141Z,24.54
2017-04-19T12:50:27.507Z,24.55
2017-04-19T12:51:29.875Z,24.63
2017-04-19T12:52:32.242Z,24.65
2017-04-19T12:53:34.610Z,24.69
2017-04-19T12:54:37.532Z,24.66
2017-04-19T12:55:39.898Z,24.73
2017-04-19T12:56:42.263Z,24.81
2017-04-19T12:57:44.629Z,24.80
2017-04-19T12:58:46.993Z,24.76
2017-04-19T12:59:49.958Z,24.80
2017-04-19T13:00:52.326Z,24.84
2017-04-19T13:01:54.696Z,24.84
2017-04-19T13:02:57.069Z,24.92
2017-04-19T13:03:59.428Z,24.92
2017-04-19T13:05:02.395Z,24.86
2017-04-19T13:06:04.758Z,24.92
2017-04-19T13:07:07.126Z,25.07
2017-04-19T13:08:09.496Z,25.07
2017-04-19T13:09:11.869Z,25.13
2017-04-19T13:10:14.838Z,25.13
2017-04-19T13:11:17.200Z,25.10
2017-04-19T13:12:19.567Z,25.04
2017-04-19T13:13:21.950Z,25.03
2017-04-19T13:14:24.314Z,25.07
2017-04-19T13:15:27.239Z,25.01
2017-04-19T13:16:29.605Z,24.98
2017-04-19T13:17:31.971Z,25.04
2017-04-19T13:18:34.345Z,25.07
2017-04-19T13:19:36.716Z,25.13
2017-04-19T13:20:39.684Z,25.16
2017-04-19T13:21:42.053Z,25.33
2017-04-19T13:22:44.419Z,25.31
2017-04-19T13:23:46.791Z,25.48
2017-04-19T13:24:49.155Z,25.43
2017-04-19T13:25:52.125Z,25.41
2017-04-19T13:26:54.493Z,25.32
2017-04-19T13:27:56.862Z,25.33